createdAt,value
2023-02-24T00:00:28.906Z,1012.4
2023-02-24T00:05:29.016Z,1012.3
2023-02-24T00:10:28.933Z,1012.3
2023-02-24T00:15:28.926Z,1012.2
2023-02-24T00:20:28.990Z,1012.1
2023-02-24T00:25:29.262Z,1012.1
2023-02-24T00:30:28.909Z,1012.0
2023-02-24T00:35:28.884Z,1011.9
2023-02-24T00:40:28.884Z,1011.8
2023-02-24T00:45:29.222Z,1011.9
2023-02-24T00:50:28.999Z,1011.9
2023-02-24T00:55:28.819Z,1011.7
2023-02-24T01:00:28.801Z,1011.7
2023-02-24T01:05:29.386Z,1011.6
2023-02-24T01:10:28.847Z,1011.6
2023-02-24T01:15:28.834Z,1011.5
2023-02-24T01:20:29.052Z,1011.5
2023-02-24T01:25:28.854Z,1011.4
2023-02-24T01:30:28.851Z,1011.4
2023-02-24T01:35:28.987Z,1011.3
2023-02-24T01:40:28.908Z,1011.2
2023-02-24T01:45:29.148Z,1011.2
2023-02-24T01:50:28.692Z,1011.1
2023-02-24T01:55:28.897Z,1011.1
2023-02-24T02:00:28.805Z,1011.0
2023-02-24T02:05:28.727Z,1011.0
2023-02-24T02:10:28.950Z,1011.0
2023-02-24T02:15:28.758Z,1011.0
2023-02-24T02:20:28.756Z,1010.9
2023-02-24T02:25:28.887Z,1010.8
2023-02-24T02:30:28.866Z,1010.8
2023-02-24T02:35:28.729Z,1010.7
2023-02-24T02:40:28.930Z,1010.6
2023-02-24T02:45:28.612Z,1010.6
2023-02-24T02:50:34.452Z,1010.6
2023-02-24T02:55:34.525Z,1010.6
2023-02-24T03:00:34.546Z,1010.4
2023-02-24T03:05:34.591Z,1010.4
2023-02-24T03:10:34.595Z,1010.3
2023-02-24T03:15:34.450Z,1010.3
2023-02-24T03:20:34.584Z,1010.2
2023-02-24T03:25:34.401Z,1010.2
2023-02-24T03:30:34.481Z,1010.2
2023-02-24T03:35:34.588Z,1010.2
2023-02-24T03:40:34.501Z,1010.2
2023-02-24T03:45:34.348Z,1010.1
2023-02-24T03:50:35.208Z,1010.1
2023-02-24T03:55:34.399Z,1010.0
2023-02-24T04:00:34.361Z,1009.9
2023-02-24T04:05:34.587Z,1009.9
2023-02-24T04:10:34.335Z,1009.9
2023-02-24T04:15:34.396Z,1009.8
2023-02-24T04:20:34.410Z,1009.8
2023-02-24T04:25:34.292Z,1009.6
2023-02-24T04:30:34.403Z,1009.6
2023-02-24T04:35:34.487Z,1009.5
2023-02-24T04:40:34.259Z,1009.4
2023-02-24T04:45:34.334Z,1009.4
2023-02-24T04:50:34.467Z,1009.2
2023-02-24T04:55:34.306Z,1009.2
2023-02-24T05:00:34.313Z,1009.1
2023-02-24T05:05:34.490Z,1009.0
2023-02-24T05:10:34.315Z,1008.9
2023-02-24T05:15:34.352Z,1008.8
2023-02-24T05:20:38.613Z,1008.7
2023-02-24T05:25:34.293Z,1008.7
2023-02-24T05:30:34.312Z,1008.7
2023-02-24T05:35:34.156Z,1008.7
2023-02-24T05:40:34.282Z,1008.6
2023-02-24T05:45:34.465Z,1008.7
2023-02-24T05:50:40.269Z,1008.7
2023-02-24T05:55:40.293Z,1008.6
2023-02-24T06:00:40.237Z,1008.5
2023-02-24T06:05:40.415Z,1008.4
2023-02-24T06:10:40.165Z,1008.4
2023-02-24T06:15:40.205Z,1008.5
2023-02-24T06:20:40.312Z,1008.4
2023-02-24T06:25:40.129Z,1008.4
2023-02-24T06:30:40.203Z,1008.4
2023-02-24T06:35:40.314Z,1008.4
2023-02-24T06:40:40.149Z,1008.4
2023-02-24T06:45:40.340Z,1008.3
2023-02-24T06:50:42.087Z,1008.3
2023-02-24T06:55:40.099Z,1008.3
2023-02-24T07:00:40.104Z,1008.3
2023-02-24T07:10:40.102Z,1008.3
2023-02-24T07:15:40.131Z,1008.2
2023-02-24T07:20:40.278Z,1008.2
2023-02-24T07:25:40.130Z,1008.1
2023-02-24T07:30:40.236Z,1008.2
2023-02-24T07:35:41.429Z,1008.1
2023-02-24T07:40:40.152Z,1008.2
2023-02-24T07:45:40.345Z,1008.1
2023-02-24T07:50:39.980Z,1008.1
2023-02-24T07:55:40.098Z,1008.0
2023-02-24T08:00:40.196Z,1007.9
2023-02-24T08:05:40.142Z,1007.9
2023-02-24T08:10:40.020Z,1007.9
2023-02-24T08:15:40.250Z,1007.7
2023-02-24T08:20:40.014Z,1007.7
2023-02-24T08:25:40.179Z,1007.9
2023-02-24T08:30:40.621Z,1007.7
2023-02-24T08:35:40.147Z,1007.6
2023-02-24T08:40:40.069Z,1007.6
2023-02-24T08:45:40.306Z,1007.5
2023-02-24T08:50:40.000Z,1007.5
2023-02-24T08:55:39.840Z,1007.4
2023-02-24T09:00:40.202Z,1007.4
2023-02-24T09:05:39.907Z,1007.3
2023-02-24T09:10:40.003Z,1007.3
2023-02-24T09:15:40.074Z,1007.3
2023-02-24T09:20:39.920Z,1007.3
2023-02-24T09:25:40.035Z,1007.2
2023-02-24T09:30:40.226Z,1007.2
2023-02-24T09:35:39.807Z,1007.2
2023-02-24T09:40:39.766Z,1007.0
2023-02-24T09:45:40.099Z,1007.0
2023-02-24T09:51:01.416Z,1007.0
2023-02-24T09:55:39.760Z,1006.9
2023-02-24T10:00:42.584Z,1006.9
2023-02-24T10:05:39.733Z,1006.8
2023-02-24T10:10:39.740Z,1006.9
2023-02-24T10:15:39.686Z,1006.7
2023-02-24T10:20:40.213Z,1006.7
2023-02-24T10:25:39.856Z,1006.6
2023-02-24T10:30:39.890Z,1006.5
2023-02-24T10:35:39.803Z,1006.5
2023-02-24T10:40:39.846Z,1006.4
2023-02-24T10:45:39.757Z,1006.3
2023-02-24T10:50:53.834Z,1006.1
2023-02-24T10:55:39.913Z,1006.1
2023-02-24T11:00:39.700Z,1006.0
2023-02-24T11:05:39.629Z,1005.9
2023-02-24T11:10:40.140Z,1005.7
2023-02-24T11:15:39.703Z,1005.6
2023-02-24T11:20:48.865Z,1005.5
2023-02-24T11:25:39.761Z,1005.3
2023-02-24T11:30:39.822Z,1005.3
2023-02-24T11:35:39.677Z,1005.3
2023-02-24T11:40:39.857Z,1005.3
2023-02-24T11:45:39.576Z,1005.3
2023-02-24T11:50:39.803Z,1005.1
2023-02-24T11:55:39.761Z,1004.9
2023-02-24T12:00:39.593Z,1004.9
2023-02-24T12:10:39.789Z,1004.8
2023-02-24T12:15:39.620Z,1004.6
2023-02-24T12:20:39.579Z,1004.5
2023-02-24T12:25:39.790Z,1004.4
2023-02-24T12:30:39.669Z,1004.4
2023-02-24T12:35:39.753Z,1004.3
2023-02-24T12:40:40.252Z,1004.3
2023-02-24T12:45:39.671Z,1004.3
2023-02-24T12:50:39.478Z,1004.2
2023-02-24T12:55:39.686Z,1004.1
2023-02-24T13:00:39.579Z,1004.0
2023-02-24T13:05:39.505Z,1003.9
2023-02-24T13:10:39.731Z,1003.9
2023-02-24T13:15:39.483Z,1003.7
2023-02-24T13:20:39.519Z,1003.7
2023-02-24T13:25:39.744Z,1003.6
2023-02-24T13:30:39.473Z,1003.5
2023-02-24T13:35:39.546Z,1003.5
2023-02-24T13:40:39.605Z,1003.4
2023-02-24T13:45:39.480Z,1003.4
2023-02-24T13:50:39.434Z,1003.3
2023-02-24T13:55:39.551Z,1003.3
2023-02-24T14:00:39.420Z,1003.2
2023-02-24T14:05:39.453Z,1003.0
2023-02-24T14:10:39.590Z,1003.1
2023-02-24T14:15:39.399Z,1003.0
2023-02-24T14:20:39.340Z,1003.0
2023-02-24T14:25:39.548Z,1002.9
2023-02-24T14:30:41.271Z,1003.0
2023-02-24T14:35:39.354Z,1002.9
2023-02-24T14:40:39.288Z,1002.7
2023-02-24T14:45:39.424Z,1002.6
2023-02-24T14:55:50.751Z,1002.6
2023-02-24T15:00:40.947Z,1002.4
2023-02-24T15:10:43.815Z,1002.3
2023-02-24T15:15:42.577Z,1002.2
2023-02-24T15:20:44.986Z,1002.2
2023-02-24T15:25:43.007Z,1002.1
2023-02-24T15:30:41.644Z,1002.2
2023-02-24T15:35:41.748Z,1002.1
2023-02-24T15:40:41.699Z,1002.0
2023-02-24T15:45:42.034Z,1001.9
2023-02-24T15:50:41.694Z,1002.0
2023-02-24T15:55:44.469Z,1001.8
2023-02-24T16:00:43.023Z,1001.6
2023-02-24T16:05:41.703Z,1001.6
2023-02-24T16:10:41.715Z,1001.5
2023-02-24T16:15:42.783Z,1001.4
2023-02-24T16:20:42.410Z,1001.5
2023-02-24T16:25:41.562Z,1001.5
2023-02-24T16:30:41.612Z,1001.5
2023-02-24T16:35:41.683Z,1001.5
2023-02-24T16:40:41.565Z,1001.4
2023-02-24T16:45:41.630Z,1001.5
2023-02-24T16:50:41.632Z,1001.5
2023-02-24T16:55:41.508Z,1001.4
2023-02-24T17:00:41.439Z,1001.3
2023-02-24T17:05:41.627Z,1001.3
2023-02-24T17:10:41.521Z,1001.2
2023-02-24T17:15:41.475Z,1001.2
2023-02-24T17:20:51.896Z,1001.2
2023-02-24T17:25:42.808Z,1001.2
2023-02-24T17:30:41.555Z,1001.5
2023-02-24T17:35:41.416Z,1001.1
2023-02-24T17:40:41.487Z,1001.2
2023-02-24T17:45:41.558Z,1000.9
2023-02-24T17:50:42.700Z,1000.8
2023-02-24T17:55:56.154Z,1000.7
2023-02-24T18:00:47.368Z,1000.7
2023-02-24T18:05:43.946Z,1000.7
2023-02-24T18:10:42.319Z,1000.7
2023-02-24T18:15:42.269Z,1000.6
2023-02-24T18:20:41.450Z,1000.6
2023-02-24T18:25:42.017Z,1000.5
2023-02-24T18:30:41.406Z,1000.6
2023-02-24T18:35:41.401Z,1000.3
2023-02-24T18:40:41.580Z,1000.3
2023-02-24T18:50:42.325Z,1000.3
2023-02-24T18:55:41.521Z,1000.2
2023-02-24T19:00:41.358Z,1000.1
2023-02-24T19:05:41.377Z,1000.0
2023-02-24T19:10:41.403Z,999.9
2023-02-24T19:15:41.307Z,999.8
2023-02-24T19:20:41.610Z,999.8
2023-02-24T19:25:41.322Z,999.8
2023-02-24T19:30:42.182Z,999.6
2023-02-24T19:35:42.031Z,999.6
2023-02-24T19:40:42.127Z,999.4
2023-02-24T19:45:42.157Z,999.3
2023-02-24T19:50:41.346Z,999.3
2023-02-24T19:55:41.182Z,999.2
2023-02-24T20:00:41.936Z,999.1
2023-02-24T20:05:46.748Z,999.0
2023-02-24T20:25:47.188Z,999.0
2023-02-24T20:35:50.857Z,998.5
2023-02-24T20:46:05.784Z,998.3
2023-02-24T20:51:10.256Z,997.9
2023-02-24T21:11:14.980Z,997.9
2023-02-24T21:16:13.030Z,997.6
2023-02-24T21:21:07.985Z,997.6
2023-02-24T21:26:10.682Z,997.8
2023-02-24T21:31:07.895Z,997.9
2023-02-24T21:36:08.589Z,997.7
2023-02-24T21:41:07.807Z,997.2
2023-02-24T21:46:07.841Z,997.3
2023-02-24T21:51:07.988Z,997.3
2023-02-24T21:56:07.788Z,997.2
2023-02-24T22:01:07.716Z,997.1
2023-02-24T22:06:07.935Z,997.1
2023-02-24T22:11:07.750Z,997.1
2023-02-24T22:16:07.796Z,997.0
2023-02-24T22:21:07.782Z,996.9
2023-02-24T22:26:07.820Z,996.9
2023-02-24T22:36:07.938Z,996.9
2023-02-24T22:41:07.591Z,996.9
2023-02-24T22:46:07.588Z,996.7
2023-02-24T22:51:07.728Z,996.7
2023-02-24T22:56:11.775Z,996.5
2023-02-24T23:01:11.772Z,996.5
2023-02-24T23:06:13.085Z,996.5
2023-02-24T23:11:11.615Z,996.7
2023-02-24T23:16:11.663Z,996.5
2023-02-24T23:21:11.612Z,996.4
2023-02-24T23:26:11.622Z,996.6
2023-02-24T23:31:11.957Z,996.5
2023-02-24T23:36:11.669Z,996.3
2023-02-24T23:41:11.571Z,996.3
2023-02-24T23:46:11.640Z,996.4
2023-02-24T23:51:11.549Z,996.3
2023-02-24T23:56:11.555Z,996.2
